Time;durP1;ratioP1;P1;durP2;ratioP2;P2;SDS_P1;SDS_P2;PMS_P1;PMS_P2;Temp;Humidity;BMP_temperature;BMP_pressure;BME280_temperature;BME280_humidity;BME280_pressure;Samples;Min_cycle;Max_cycle;Signal;HPM_P1;HPM_P2
2022/06/24 00:00:48;;;;;;;18.42;12.38;;;22.50;99.90;;;;;;5005820;28;20496;-61
2022/06/24 00:03:18;;;;;;;16.05;11.95;;;;;;;;;;4994486;28;20166;-61
2022/06/24 00:05:46;;;;;;;21.15;12.30;;;22.40;99.90;;;;;;4994968;28;20042;-61
2022/06/24 00:08:13;;;;;;;19.92;13.35;;;;;;;;;;5006703;28;20050;-63
2022/06/24 00:10:39;;;;;;;15.55;11.38;;;;;;;;;;4998797;28;20046;-61
2022/06/24 00:13:06;;;;;;;15.20;11.20;;;22.10;99.90;;;;;;4997817;28;20051;-61
2022/06/24 00:15:34;;;;;;;16.02;11.88;;;21.80;99.90;;;;;;4993722;28;20049;-61
2022/06/24 00:18:14;;;;;;;22.35;12.95;;;;;;;;;;4993990;28;20050;-61
2022/06/24 00:20:45;;;;;;;20.30;13.53;;;22.00;99.90;;;;;;4993513;28;20125;-61
2022/06/24 00:23:12;;;;;;;25.10;14.55;;;;;;;;;;4991482;28;20062;-61
2022/06/24 00:25:38;;;;;;;23.33;16.48;;;;;;;;;;4995005;28;20063;-61
2022/06/24 00:28:09;;;;;;;22.27;15.75;;;21.50;99.90;;;;;;4993462;28;20066;-61
2022/06/24 00:30:39;;;;;;;17.60;12.82;;;;;;;;;;5012686;28;20062;-61
2022/06/24 00:33:15;;;;;;;15.50;12.65;;;21.60;99.90;;;;;;4997927;28;20050;-61
2022/06/24 00:35:47;;;;;;;18.42;14.95;;;21.50;99.90;;;;;;4993958;28;20066;-61
2022/06/24 00:38:29;;;;;;;17.65;13.10;;;;;;;;;;4993460;28;20084;-61
2022/06/24 00:41:00;;;;;;;18.35;12.55;;;21.20;99.90;;;;;;5003869;28;20401;-61
2022/06/24 00:43:32;;;;;;;19.13;13.52;;;;;;;;;;4992973;28;20047;-61
2022/06/24 00:46:00;;;;;;;17.80;13.80;;;;;;;;;;4994418;28;20058;-61
2022/06/24 00:48:29;;;;;;;21.65;16.15;;;21.30;99.90;;;;;;4976347;28;20073;-61
2022/06/24 00:50:55;;;;;;;21.83;15.55;;;;;;;;;;5002428;28;20137;-62
2022/06/24 00:53:21;;;;;;;22.13;15.85;;;;;;;;;;4993607;28;20394;-61
2022/06/24 00:55:47;;;;;;;20.73;15.45;;;;;;;;;;4993673;28;20054;-61
2022/06/24 00:58:14;;;;;;;21.00;15.73;;;;;;;;;;4996050;28;20054;-61
2022/06/24 01:00:42;;;;;;;20.85;15.43;;;;;;;;;;5009987;28;20050;-61
2022/06/24 01:03:08;;;;;;;23.85;15.52;;;;;;;;;;4992873;28;20061;-62
2022/06/24 01:05:35;;;;;;;24.02;16.17;;;;;;;;;;4992790;28;20053;-62
2022/06/24 01:08:10;;;;;;;20.20;15.52;;;20.90;99.90;;;;;;5006568;28;20054;-62
2022/06/24 01:10:36;;;;;;;18.20;14.60;;;;;;;;;;5005840;28;20054;-62
2022/06/24 01:13:02;;;;;;;19.00;15.48;;;;;;;;;;4991473;28;20494;-61
2022/06/24 01:15:28;;;;;;;21.95;16.15;;;;;;;;;;4993634;28;20059;-61
2022/06/24 01:17:54;;;;;;;22.05;16.10;;;;;;;;;;4994707;28;20042;-61
2022/06/24 01:20:21;;;;;;;24.27;16.35;;;;;;;;;;5008093;28;20137;-61
2022/06/24 01:22:47;;;;;;;21.30;15.90;;;;;;;;;;4992973;28;20050;-61
2022/06/24 01:25:13;;;;;;;19.10;15.88;;;;;;;;;;4994051;28;20046;-61
2022/06/24 01:27:39;;;;;;;24.92;16.67;;;;;;;;;;4992561;28;20121;-61
2022/06/24 01:30:05;;;;;;;23.73;16.95;;;21.00;99.90;;;;;;4993143;28;20621;-61
2022/06/24 01:32:31;;;;;;;24.50;15.82;;;;;;;;;;5000339;28;20078;-61
2022/06/24 01:34:57;;;;;;;22.95;16.40;;;;;;;;;;4993881;28;20133;-61
2022/06/24 01:37:24;;;;;;;20.30;17.27;;;;;;;;;;5010496;28;20124;-61
2022/06/24 01:39:50;;;;;;;23.65;17.50;;;;;;;;;;4994170;28;20038;-61
2022/06/24 01:42:16;;;;;;;23.40;16.15;;;;;;;;;;4990042;28;20064;-62
2022/06/24 01:44:42;;;;;;;24.63;16.80;;;;;;;;;;4975232;28;20050;-61
2022/06/24 01:47:09;;;;;;;24.33;17.80;;;;;;;;;;4974839;28;20137;-61
2022/06/24 01:49:35;;;;;;;19.02;16.23;;;;;;;;;;4992430;28;20358;-61
2022/06/24 01:52:01;;;;;;;24.33;15.68;;;;;;;;;;5006040;28;20046;-61
2022/06/24 01:54:27;;;;;;;21.45;15.63;;;21.20;99.90;;;;;;5001404;28;20046;-61
2022/06/24 01:56:54;;;;;;;23.33;15.82;;;;;;;;;;4975081;28;20104;-63
2022/06/24 01:59:20;;;;;;;26.27;17.85;;;;;;;;;;4978117;28;20381;-61
2022/06/24 02:01:46;;;;;;;23.73;18.60;;;;;;;;;;5002981;28;20058;-61
2022/06/24 02:04:13;;;;;;;20.38;16.77;;;;;;;;;;4999495;28;20056;-61
2022/06/24 02:06:39;;;;;;;25.23;18.67;;;;;;;;;;4992856;28;20046;-62
2022/06/24 02:09:06;;;;;;;26.48;16.80;;;20.60;99.90;;;;;;4993268;28;20051;-61
2022/06/24 02:14:17;;;;;;;27.85;17.92;;;;;;;;;;5011965;28;20134;-61
2022/06/24 02:16:43;;;;;;;20.67;15.68;;;;;;;;;;5011122;28;20050;-61
2022/06/24 02:19:09;;;;;;;24.98;18.77;;;;;;;;;;4992975;28;20504;-61
2022/06/24 02:21:36;;;;;;;23.38;16.90;;;20.90;99.90;;;;;;4977510;28;20046;-61
2022/06/24 02:24:02;;;;;;;23.67;17.75;;;;;;;;;;4993079;28;20100;-61
2022/06/24 02:26:28;;;;;;;24.25;19.10;;;;;;;;;;4995231;28;20078;-61
2022/06/24 02:28:54;;;;;;;24.20;17.55;;;;;;;;;;4995063;28;20048;-60
2022/06/24 02:31:20;;;;;;;27.63;18.30;;;;;;;;;;4985004;28;20046;-61
2022/06/24 02:33:46;;;;;;;29.23;19.70;;;;;;;;;;4976647;28;20133;-61
2022/06/24 02:36:12;;;;;;;25.75;18.65;;;;;;;;;;4986689;28;20082;-61
2022/06/24 02:38:38;;;;;;;23.25;18.50;;;;;;;;;;4995910;28;20513;-61
2022/06/24 02:41:04;;;;;;;24.60;17.80;;;;;;;;;;4995847;28;20076;-61
2022/06/24 02:43:32;;;;;;;24.52;18.25;;;20.50;99.90;;;;;;4996562;28;20471;-61
2022/06/24 02:46:03;;;;;;;25.65;17.92;;;20.60;99.90;;;;;;4996828;28;20166;-61
2022/06/24 02:48:30;;;;;;;23.30;19.38;;;;;;;;;;4996617;28;20062;-61
2022/06/24 02:50:57;;;;;;;29.55;19.35;;;20.60;99.90;;;;;;4994263;28;20041;-61
2022/06/24 02:53:24;;;;;;;25.00;18.48;;;20.50;99.90;;;;;;5016038;28;20499;-61
2022/06/24 02:55:52;;;;;;;23.65;18.33;;;;;;;;;;4996333;28;20474;-61
2022/06/24 02:58:18;;;;;;;24.13;18.60;;;;;;;;;;4995717;28;20054;-61
2022/06/24 03:00:44;;;;;;;26.10;17.33;;;;;;;;;;4997347;28;20045;-61
2022/06/24 03:03:11;;;;;;;25.92;18.63;;;20.60;99.90;;;;;;5015842;28;20125;-61
2022/06/24 03:05:38;;;;;;;27.35;17.13;;;;;;;;;;5015874;28;20049;-60
2022/06/24 03:08:04;;;;;;;22.23;16.50;;;;;;;;;;4995161;28;20505;-61
2022/06/24 03:10:30;;;;;;;23.55;15.80;;;;;;;;;;5008471;28;20522;-61
2022/06/24 03:12:56;;;;;;;21.88;14.75;;;;;;;;;;4996202;28;20054;-61
2022/06/24 03:15:22;;;;;;;19.65;13.00;;;;;;;;;;4996211;28;20053;-61
2022/06/24 03:17:48;;;;;;;22.40;14.52;;;21.10;99.90;;;;;;4996213;28;20050;-61
2022/06/24 03:20:14;;;;;;;24.08;14.98;;;;;;;;;;4984493;28;20054;-61
2022/06/24 03:22:40;;;;;;;25.75;17.15;;;;;;;;;;5015426;28;20046;-61
2022/06/24 03:25:08;;;;;;;25.52;16.85;;;21.10;99.90;;;;;;5008308;28;20050;-61
2022/06/24 03:27:34;;;;;;;28.45;17.88;;;;;;;;;;4991741;28;20046;-61
2022/06/24 03:30:00;;;;;;;19.75;14.48;;;;;;;;;;4995699;28;20243;-61
2022/06/24 03:32:27;;;;;;;23.35;15.75;;;;;;;;;;4996609;28;20050;-61
2022/06/24 03:34:53;;;;;;;18.42;11.80;;;;;;;;;;4999253;28;20128;-61
2022/06/24 03:37:19;;;;;;;14.02;6.03;;;;;;;;;;5014705;28;20058;-61
2022/06/24 03:39:45;;;;;;;10.05;5.85;;;;;;;;;;5006410;28;20053;-62
2022/06/24 03:42:11;;;;;;;6.88;4.85;;;;;;;;;;4994916;28;20053;-61
2022/06/24 03:44:37;;;;;;;6.25;4.10;;;;;;;;;;5011095;28;20050;-61
2022/06/24 03:47:03;;;;;;;11.75;4.85;;;;;;;;;;5009338;28;20514;-60
2022/06/24 03:49:29;;;;;;;7.78;4.28;;;;;;;;;;5000578;28;20045;-60
2022/06/24 03:51:55;;;;;;;5.82;4.32;;;;;;;;;;5001166;28;20050;-60
2022/06/24 03:54:22;;;;;;;9.40;5.03;;;;;;;;;;4995277;28;20050;-60
2022/06/24 03:56:48;;;;;;;9.45;4.43;;;;;;;;;;4996674;28;20050;-60
2022/06/24 03:59:14;;;;;;;10.05;5.10;;;;;;;;;;4995189;28;20378;-60
2022/06/24 04:01:40;;;;;;;7.80;4.95;;;;;;;;;;4983740;28;20056;-60
2022/06/24 04:04:06;;;;;;;9.48;5.13;;;;;;;;;;4975953;28;20465;-60
2022/06/24 04:06:32;;;;;;;6.13;4.40;;;;;;;;;;4992836;28;20060;-60
2022/06/24 04:08:58;;;;;;;7.40;4.07;;;;;;;;;;4979241;28;20062;-60
2022/06/24 04:11:24;;;;;;;6.22;4.18;;;;;;;;;;5014400;28;20042;-60
2022/06/24 04:13:50;;;;;;;8.45;4.55;;;;;;;;;;4997245;28;20108;-60
2022/06/24 04:16:16;;;;;;;9.43;4.28;;;;;;;;;;4994289;28;20500;-60
2022/06/24 04:18:42;;;;;;;5.95;4.40;;;;;;;;;;5046763;22;20132;-60
2022/06/24 04:21:12;;;;;;;5.93;4.50;;;;;;;;;;5052513;28;20455;-60
2022/06/24 04:23:38;;;;;;;5.78;4.88;;;;;;;;;;5054975;28;20060;-60
2022/06/24 04:26:04;;;;;;;7.93;4.88;;;;;;;;;;5040146;28;20054;-62
2022/06/24 04:28:30;;;;;;;5.97;4.53;;;;;;;;;;5031673;28;20049;-60
2022/06/24 04:30:56;;;;;;;6.10;5.10;;;;;;;;;;5039655;28;20371;-60
2022/06/24 04:33:22;;;;;;;9.32;4.85;;;;;;;;;;5050812;28;20186;-60
2022/06/24 04:35:48;;;;;;;6.10;4.20;;;;;;;;;;5053426;28;20102;-61
2022/06/24 04:38:14;;;;;;;9.00;4.75;;;;;;;;;;5035854;28;20057;-60
2022/06/24 04:40:41;;;;;;;4.90;3.75;;;;;;;;;;5034414;28;20057;-60
2022/06/24 04:43:07;;;;;;;8.68;4.53;;;;;;;;;;5047914;28;20089;-60
2022/06/24 04:46:17;;;;;;;12.05;5.10;;;19.70;99.90;;;;;;5041554;22;20076;-60
2022/06/24 04:49:08;;;;;;;9.98;5.32;;;;;;;;;;5054350;22;20064;-59
2022/06/24 04:52:24;;;;;;;11.13;5.00;;;19.40;99.90;;;;;;5044609;22;20053;-59
2022/06/24 04:54:50;;;;;;;8.10;5.68;;;;;;;;;;4977044;28;20549;-59
2022/06/24 04:57:17;;;;;;;11.82;6.63;;;;;;;;;;4976952;28;20050;-59
2022/06/24 04:59:43;;;;;;;10.77;6.85;;;;;;;;;;4975700;28;20126;-60
2022/06/24 05:02:09;;;;;;;8.70;6.28;;;;;;;;;;4986311;28;20495;-60
2022/06/24 05:04:36;;;;;;;8.00;6.05;;;;;;;;;;4989190;28;20106;-60
2022/06/24 05:07:02;;;;;;;7.70;4.88;;;;;;;;;;4974489;28;20057;-61
2022/06/24 05:09:28;;;;;;;6.60;4.82;;;;;;;;;;4971441;28;20061;-61
2022/06/24 05:11:54;;;;;;;6.65;4.78;;;;;;;;;;4980168;28;20065;-61
2022/06/24 05:14:20;;;;;;;6.53;4.68;;;;;;;;;;4985453;28;20055;-60
2022/06/24 05:16:47;;;;;;;7.03;5.28;;;;;;;;;;4957302;28;20054;-60
2022/06/24 05:19:13;;;;;;;9.02;6.00;;;;;;;;;;4957306;28;20105;-60
2022/06/24 05:21:39;;;;;;;8.45;6.72;;;;;;;;;;4982253;28;20051;-61
2022/06/24 05:24:05;;;;;;;8.45;6.60;;;;;;;;;;4974307;28;20055;-60
2022/06/24 05:26:31;;;;;;;9.52;5.47;;;;;;;;;;4989518;28;20046;-60
2022/06/24 05:28:58;;;;;;;5.88;4.90;;;;;;;;;;4974153;28;20046;-61
2022/06/24 05:31:24;;;;;;;8.00;5.03;;;;;;;;;;4977767;28;20153;-61
2022/06/24 05:33:50;;;;;;;7.10;5.13;;;;;;;;;;4973908;28;20106;-61
2022/06/24 05:36:15;;;;;;;10.38;6.20;;;19.70;99.90;;;;;;4972574;28;20458;-61
2022/06/24 05:38:42;;;;;;;8.30;5.20;;;;;;;;;;4973966;28;20164;-61
2022/06/24 05:41:09;;;;;;;6.85;4.93;;;;;;;;;;4973005;28;20153;-60
2022/06/24 05:43:35;;;;;;;10.20;5.20;;;;;;;;;;4989753;28;20120;-60
2022/06/24 05:46:01;;;;;;;8.40;6.60;;;;;;;;;;4976310;28;20080;-61
2022/06/24 05:48:28;;;;;;;10.98;6.72;;;;;;;;;;4973798;28;20411;-61
2022/06/24 05:50:54;;;;;;;7.00;5.40;;;19.80;99.90;;;;;;4977118;28;20084;-61
2022/06/24 05:56:04;;;;;;;10.63;6.15;;;19.70;99.90;;;;;;4969676;28;20062;-61
2022/06/24 05:58:31;;;;;;;7.40;5.20;;;;;;;;;;4972407;28;20716;-62
2022/06/24 06:00:57;;;;;;;6.60;5.55;;;;;;;;;;4974805;28;20430;-63
2022/06/24 06:03:23;;;;;;;8.07;5.63;;;;;;;;;;4973574;28;20142;-62
2022/06/24 06:05:49;;;;;;;8.95;6.32;;;;;;;;;;4974769;28;20065;-62
2022/06/24 06:08:15;;;;;;;10.10;7.85;;;;;;;;;;4972002;28;20584;-62
2022/06/24 06:10:43;;;;;;;12.52;8.55;;;;;;;;;;4969562;28;20054;-63
2022/06/24 06:13:10;;;;;;;12.75;8.48;;;;;;;;;;4975004;28;20065;-62
2022/06/24 06:15:36;;;;;;;12.70;8.88;;;;;;;;;;4970408;28;20043;-62
2022/06/24 06:18:04;;;;;;;9.98;8.23;;;;;;;;;;4973236;28;20410;-63
2022/06/24 06:20:30;;;;;;;11.77;8.27;;;;;;;;;;4982093;28;20056;-62
2022/06/24 06:22:56;;;;;;;13.05;8.13;;;;;;;;;;4957700;28;20502;-62
2022/06/24 06:25:22;;;;;;;16.50;8.18;;;;;;;;;;4955210;28;20082;-62
2022/06/24 06:27:49;;;;;;;12.70;8.65;;;20.40;99.90;;;;;;4978623;28;20145;-63
2022/06/24 06:30:15;;;;;;;15.90;8.45;;;;;;;;;;4957471;28;20116;-63
2022/06/24 06:32:41;;;;;;;12.13;8.27;;;;;;;;;;4973934;28;20058;-64
2022/06/24 06:35:08;;;;;;;15.30;8.80;;;;;;;;;;4976535;28;20137;-64
2022/06/24 06:37:34;;;;;;;14.65;9.73;;;;;;;;;;4974201;28;20121;-63
2022/06/24 06:40:00;;;;;;;11.77;8.98;;;20.10;99.90;;;;;;4991583;28;20055;-63
2022/06/24 06:42:26;;;;;;;11.55;8.98;;;;;;;;;;4975288;28;20065;-64
2022/06/24 06:44:52;;;;;;;16.13;8.82;;;;;;;;;;4961569;28;20055;-65
2022/06/24 06:47:18;;;;;;;13.35;8.00;;;20.20;99.90;;;;;;4973476;28;20055;-63
2022/06/24 06:49:45;;;;;;;13.63;8.27;;;;;;;;;;4985383;28;20413;-65
2022/06/24 06:52:10;;;;;;;11.50;8.32;;;20.10;99.90;;;;;;4955171;28;20082;-64
2022/06/24 06:54:37;;;;;;;10.45;7.15;;;;;;;;;;4989851;28;20117;-63
2022/06/24 06:57:03;;;;;;;11.10;7.63;;;;;;;;;;4973219;28;20054;-64
2022/06/24 06:59:29;;;;;;;12.45;6.85;;;;;;;;;;4989892;28;20081;-63
2022/06/24 07:01:55;;;;;;;12.13;7.85;;;;;;;;;;4992332;28;20054;-64
2022/06/24 07:04:21;;;;;;;13.70;8.05;;;;;;;;;;4992874;28;20054;-63
2022/06/24 07:06:47;;;;;;;12.60;7.10;;;;;;;;;;4973840;28;20490;-64
2022/06/24 07:09:14;;;;;;;14.75;7.55;;;;;;;;;;4976183;28;20528;-65
2022/06/24 07:11:40;;;;;;;12.88;7.45;;;;;;;;;;4995387;28;20047;-64
2022/06/24 07:14:06;;;;;;;14.85;8.98;;;;;;;;;;4977320;28;20046;-63
2022/06/24 07:16:32;;;;;;;14.75;8.57;;;;;;;;;;4978142;28;20745;-63
2022/06/24 07:18:58;;;;;;;13.32;7.97;;;;;;;;;;4998613;28;20072;-63
2022/06/24 07:21:24;;;;;;;14.57;8.57;;;20.20;99.90;;;;;;5009358;28;20058;-64
2022/06/24 07:23:50;;;;;;;12.30;8.70;;;;;;;;;;4981337;28;20394;-63
2022/06/24 07:26:16;;;;;;;12.15;8.68;;;;;;;;;;4994249;28;20085;-63
2022/06/24 07:28:43;;;;;;;18.65;9.70;;;;;;;;;;4958965;28;20058;-65
2022/06/24 07:31:27;;;;;;;15.50;9.93;;;;;;;;;;5008661;28;20058;-63
2022/06/24 07:33:53;;;;;;;12.32;9.43;;;20.30;99.90;;;;;;4992437;28;20408;-64
2022/06/24 07:36:19;;;;;;;14.98;8.77;;;;;;;;;;4994645;28;20544;-64
2022/06/24 07:38:44;;;;;;;17.05;9.93;;;20.00;99.90;;;;;;4977713;28;20501;-63
2022/06/24 07:41:11;;;;;;;12.80;9.00;;;;;;;;;;4962330;28;20057;-64
2022/06/24 07:43:37;;;;;;;13.45;8.68;;;;;;;;;;4993584;28;20126;-64
2022/06/24 07:46:04;;;;;;;12.73;7.90;;;;;;;;;;4977532;28;20054;-64
2022/06/24 07:48:30;;;;;;;11.18;7.57;;;;;;;;;;5004713;28;20136;-63
2022/06/24 07:50:56;;;;;;;12.70;8.13;;;;;;;;;;4986435;28;20141;-63
2022/06/24 07:53:22;;;;;;;12.63;7.30;;;;;;;;;;4977435;28;20058;-63
2022/06/24 07:58:33;;;;;;;9.55;6.30;;;;;;;;;;5003738;28;20054;-63
2022/06/24 08:01:01;;;;;;;11.52;6.78;;;;;;;;;;4999487;28;20054;-63
2022/06/24 08:03:26;;;;;;;13.45;6.78;;;20.30;99.90;;;;;;4975381;28;20046;-63
2022/06/24 08:05:52;;;;;;;10.68;6.32;;;;;;;;;;4968942;28;20394;-63
2022/06/24 08:08:18;;;;;;;9.20;6.28;;;;;;;;;;4978791;28;20082;-64
2022/06/24 08:10:44;;;;;;;11.40;5.75;;;20.20;99.90;;;;;;4993144;28;20046;-63
2022/06/24 08:13:10;;;;;;;10.50;6.40;;;;;;;;;;4978763;28;20059;-60
2022/06/24 08:15:36;;;;;;;10.07;6.05;;;;;;;;;;5003774;28;20796;-60
2022/06/24 08:18:02;;;;;;;11.10;6.70;;;19.90;99.90;;;;;;4994810;28;20058;-60
2022/06/24 08:20:28;;;;;;;11.15;6.35;;;;;;;;;;4981352;28;20103;-60
2022/06/24 08:22:54;;;;;;;12.30;6.85;;;;;;;;;;5008687;28;20058;-60
2022/06/24 08:25:20;;;;;;;9.90;6.63;;;19.90;99.90;;;;;;4977388;28;20076;-60
2022/06/24 08:27:46;;;;;;;13.57;7.65;;;;;;;;;;4994843;28;20141;-60
2022/06/24 08:30:12;;;;;;;11.75;7.18;;;;;;;;;;4993748;28;20067;-60
2022/06/24 08:32:38;;;;;;;10.35;6.35;;;;;;;;;;4994222;28;20058;-60
2022/06/24 08:35:04;;;;;;;11.68;6.95;;;19.60;99.90;;;;;;4995633;28;20082;-61
2022/06/24 08:37:30;;;;;;;11.60;7.07;;;;;;;;;;4993028;28;20409;-61
2022/06/24 08:39:57;;;;;;;12.98;7.20;;;;;;;;;;4992726;28;20108;-60
2022/06/24 08:42:29;;;;;;;8.10;4.50;;;19.50;99.90;;;;;;4994190;28;20058;-60
2022/06/24 08:45:00;;;;;;;9.48;6.57;;;;;;;;;;4976795;28;20413;-59
2022/06/24 08:47:26;;;;;;;9.50;6.10;;;;;;;;;;5012526;28;20053;-60
2022/06/24 08:49:53;;;;;;;12.40;6.97;;;;;;;;;;5006847;28;20175;-59
2022/06/24 08:52:20;;;;;;;12.50;6.78;;;;;;;;;;4999557;28;20103;-58
2022/06/24 08:54:49;;;;;;;7.90;3.50;;;;;;;;;;4996832;28;20050;-58
2022/06/24 08:57:15;;;;;;;11.77;4.07;;;;;;;;;;4989874;28;20077;-57
2022/06/24 08:59:45;;;;;;;5.30;3.15;;;;;;;;;;4961471;28;20069;-58
2022/06/24 09:02:15;;;;;;;5.32;3.20;;;;;;;;;;4997111;28;20061;-58
2022/06/24 09:04:45;;;;;;;5.38;3.50;;;;;;;;;;4999806;28;20120;-59
2022/06/24 09:07:17;;;;;;;5.82;3.90;;;;;;;;;;4978746;28;20133;-59
2022/06/24 09:09:56;;;;;;;8.27;3.97;;;;;;;;;;4980275;28;20059;-59
2022/06/24 09:12:22;;;;;;;5.78;3.30;;;;;;;;;;4993684;28;20112;-59
2022/06/24 09:14:48;;;;;;;6.45;3.75;;;;;;;;;;4984759;28;20085;-58
2022/06/24 09:17:13;;;;;;;5.18;3.30;;;18.40;99.90;;;;;;4991843;28;20328;-58
2022/06/24 09:19:39;;;;;;;7.65;3.70;;;18.50;99.90;;;;;;4979106;28;20047;-58
2022/06/24 09:22:06;;;;;;;6.50;3.72;;;;;;;;;;4989080;28;20391;-58
2022/06/24 09:24:48;;;;;;;6.57;4.00;;;;;;;;;;4977209;28;20482;-59
2022/06/24 09:27:15;;;;;;;7.15;4.65;;;;;;;;;;4991976;28;20057;-58
2022/06/24 09:29:47;;;;;;;5.40;3.05;;;;;;;;;;4976095;28;20054;-58
2022/06/24 09:32:13;;;;;;;4.65;3.70;;;;;;;;;;4992083;28;20058;-60
2022/06/24 09:34:39;;;;;;;5.15;3.40;;;;;;;;;;4976057;28;20046;-58
2022/06/24 09:37:07;;;;;;;6.55;4.07;;;;;;;;;;4985686;28;20077;-57
2022/06/24 09:39:33;;;;;;;6.68;4.00;;;;;;;;;;4991451;28;20089;-58
2022/06/24 09:41:59;;;;;;;5.63;4.30;;;;;;;;;;4989253;28;20116;-58
2022/06/24 09:44:27;;;;;;;10.40;4.72;;;;;;;;;;4991903;28;20059;-58
2022/06/24 09:47:04;;;;;;;7.75;4.53;;;;;;;;;;4991402;28;20058;-58
2022/06/24 09:49:30;;;;;;;6.22;4.03;;;;;;;;;;4992270;28;20084;-57
2022/06/24 09:51:56;;;;;;;4.75;3.50;;;;;;;;;;4990626;28;20093;-58
2022/06/24 09:54:23;;;;;;;7.72;3.95;;;;;;;;;;4989152;28;20070;-57
2022/06/24 09:56:50;;;;;;;6.53;3.45;;;;;;;;;;4989270;28;20057;-57
2022/06/24 10:02:01;;;;;;;4.93;3.58;;;;;;;;;;4978076;28;20332;-56
2022/06/24 10:04:27;;;;;;;6.10;4.35;;;;;;;;;;5011503;28;20104;-56
2022/06/24 10:06:58;;;;;;;6.65;3.65;;;;;;;;;;4994117;28;20138;-58
2022/06/24 10:09:28;;;;;;;7.95;4.15;;;;;;;;;;4990488;28;20056;-57
2022/06/24 10:11:57;;;;;;;6.45;3.90;;;18.90;99.90;;;;;;5012800;28;20172;-57
2022/06/24 10:14:24;;;;;;;7.80;4.88;;;18.70;99.90;;;;;;5008132;28;20054;-57
2022/06/24 10:16:51;;;;;;;5.53;4.55;;;;;;;;;;4993953;28;20050;-58
2022/06/24 10:19:19;;;;;;;6.40;4.72;;;19.40;99.90;;;;;;4987491;28;20525;-58
2022/06/24 10:21:47;;;;;;;6.70;5.22;;;;;;;;;;4992288;28;20132;-57
2022/06/24 10:24:17;;;;;;;7.50;5.88;;;;;;;;;;4976120;28;20051;-57
2022/06/24 10:26:47;;;;;;;8.47;6.93;;;;;;;;;;4992556;28;20054;-57
2022/06/24 10:29:17;;;;;;;12.80;8.52;;;20.30;99.90;;;;;;4977882;28;20305;-58
2022/06/24 10:31:44;;;;;;;11.20;8.23;;;;;;;;;;4975623;28;20133;-57
2022/06/24 10:34:10;;;;;;;9.93;8.07;;;20.40;99.90;;;;;;4992611;28;20141;-57
2022/06/24 10:36:36;;;;;;;13.90;10.15;;;;;;;;;;4984362;28;20207;-60
2022/06/24 10:39:10;;;;;;;11.93;10.07;;;20.70;99.90;;;;;;4989509;28;20058;-59
2022/06/24 10:41:39;;;;;;;15.80;10.90;;;20.70;99.90;;;;;;4995372;28;20058;-59
2022/06/24 10:44:25;;;;;;;15.85;11.30;;;;;;;;;;4985144;28;20064;-58
2022/06/24 10:47:18;;;;;;;13.88;10.70;;;;;;;;;;4990471;28;20165;-58
2022/06/24 10:49:50;;;;;;;15.35;11.82;;;20.70;99.90;;;;;;4974876;28;20084;-58
2022/06/24 10:53:00;;;;;;;14.68;12.40;;;20.90;99.90;;;;;;4976408;28;20058;-58
2022/06/24 10:55:28;;;;;;;17.38;13.38;;;20.90;99.90;;;;;;5002735;28;20066;-59
2022/06/24 10:58:09;;;;;;;15.68;13.32;;;20.60;99.90;;;;;;4997939;28;20061;-59
2022/06/24 11:00:43;;;;;;;17.77;14.13;;;20.90;99.90;;;;;;4995221;28;20050;-57
2022/06/24 11:03:09;;;;;;;14.45;12.45;;;;;;;;;;4976451;28;20059;-60
2022/06/24 11:05:42;;;;;;;18.50;14.20;;;21.10;99.90;;;;;;4975094;28;20065;-57
2022/06/24 11:08:13;;;;;;;16.52;13.68;;;21.20;99.90;;;;;;4982215;28;20050;-57
2022/06/24 11:10:40;;;;;;;18.58;14.55;;;21.30;99.90;;;;;;4995982;28;20109;-58
2022/06/24 11:13:07;;;;;;;19.08;15.63;;;;;;;;;;4992675;28;20084;-58
2022/06/24 11:15:41;;;;;;;19.08;15.43;;;21.40;99.90;;;;;;4992275;28;20062;-58
2022/06/24 11:18:12;;;;;;;18.63;16.58;;;21.60;99.90;;;;;;4992752;28;20050;-58
2022/06/24 11:20:41;;;;;;;18.02;14.07;;;21.50;99.90;;;;;;4979893;28;20073;-58
2022/06/24 11:23:11;;;;;;;21.05;16.38;;;22.20;99.90;;;;;;4970268;28;20054;-58
2022/06/24 11:25:40;;;;;;;16.75;14.57;;;22.40;99.90;;;;;;4988291;28;20053;-59
2022/06/24 11:28:17;;;;;;;16.63;14.90;;;24.40;99.90;;;;;;4981130;28;20064;-58
2022/06/24 11:30:43;;;;;;;20.15;14.88;;;;;;;;;;4981291;28;20597;-59
2022/06/24 11:33:09;;;;;;;16.38;14.68;;;;;;;;;;4975071;28;20082;-59
2022/06/24 11:35:35;;;;;;;17.45;13.68;;;22.60;99.90;;;;;;4992611;28;20054;-58
2022/06/24 11:38:06;;;;;;;14.40;11.77;;;22.70;99.90;;;;;;4980894;28;20046;-59
2022/06/24 11:40:32;;;;;;;13.68;11.63;;;22.70;99.90;;;;;;4987366;28;20062;-59
2022/06/24 11:43:05;;;;;;;13.98;11.15;;;22.60;99.90;;;;;;4970283;28;20046;-59
2022/06/24 11:45:43;;;;;;;12.50;10.30;;;22.50;99.90;;;;;;4994171;28;20435;-59
2022/06/24 11:48:18;;;;;;;13.65;10.13;;;22.60;99.90;;;;;;4989269;28;20494;-59
2022/06/24 11:50:44;;;;;;;13.60;10.85;;;22.60;99.90;;;;;;4993237;28;20085;-59
2022/06/24 11:53:10;;;;;;;14.70;11.07;;;22.70;99.90;;;;;;4985167;28;20168;-59
2022/06/24 11:55:38;;;;;;;13.63;10.98;;;22.90;99.90;;;;;;4993203;28;20046;-58
2022/06/24 11:58:08;;;;;;;16.35;10.30;;;22.70;99.90;;;;;;4992470;28;20104;-59
2022/06/24 12:00:39;;;;;;;14.38;9.82;;;22.80;99.90;;;;;;4991627;28;20054;-59
2022/06/24 12:03:07;;;;;;;13.52;10.07;;;23.00;99.90;;;;;;4984261;28;20402;-59
2022/06/24 12:05:37;;;;;;;15.90;10.68;;;22.70;99.90;;;;;;4964974;28;20057;-59
2022/06/24 12:08:06;;;;;;;11.65;10.05;;;23.00;99.90;;;;;;4980381;28;20055;-59
2022/06/24 12:10:32;;;;;;;14.38;11.00;;;23.00;99.90;;;;;;5007978;28;20061;-59
2022/06/24 12:13:00;;;;;;;13.02;10.90;;;22.80;99.90;;;;;;4979593;28;20446;-60
2022/06/24 12:15:36;;;;;;;12.95;11.18;;;22.80;99.90;;;;;;4976038;28;20061;-59
2022/06/24 12:18:02;;;;;;;13.77;11.20;;;;;;;;;;4987433;28;20063;-59
2022/06/24 12:20:29;;;;;;;13.05;10.88;;;22.50;99.90;;;;;;4986917;28;20042;-60
2022/06/24 12:23:14;;;;;;;13.80;11.32;;;22.70;99.90;;;;;;4976568;28;20145;-59
2022/06/24 12:25:41;;;;;;;13.75;10.73;;;22.80;99.90;;;;;;4991424;28;20054;-59
2022/06/24 12:28:26;;;;;;;14.98;12.75;;;22.90;99.90;;;;;;4991582;28;20072;-59
2022/06/24 12:31:06;;;;;;;14.20;11.23;;;23.00;99.90;;;;;;4994135;28;20054;-59
2022/06/24 12:33:47;;;;;;;14.30;12.15;;;22.80;99.90;;;;;;4976693;28;20176;-59
2022/06/24 12:36:15;;;;;;;14.25;11.45;;;23.00;99.90;;;;;;4976876;28;20054;-59
2022/06/24 12:38:53;;;;;;;15.23;11.18;;;23.00;99.90;;;;;;4972999;28;20077;-60
2022/06/24 12:41:21;;;;;;;14.43;11.75;;;24.50;99.90;;;;;;4994269;28;20469;-59
2022/06/24 12:43:52;;;;;;;12.15;10.90;;;23.40;99.90;;;;;;4993769;28;20058;-59
2022/06/24 12:46:21;;;;;;;15.25;11.30;;;23.40;99.90;;;;;;4993353;28;20511;-59
2022/06/24 12:51:30;;;;;;;14.80;12.00;;;23.60;99.90;;;;;;4994145;28;20082;-59
2022/06/24 12:53:58;;;;;;;15.30;11.43;;;23.80;99.90;;;;;;4974401;28;20522;-59
2022/06/24 12:56:24;;;;;;;15.43;12.02;;;23.90;99.90;;;;;;4975442;28;20453;-59
2022/06/24 12:58:51;;;;;;;11.00;9.43;;;24.20;99.90;;;;;;4971969;28;20054;-59
2022/06/24 13:01:18;;;;;;;10.43;8.93;;;25.10;99.90;;;;;;4975821;28;20522;-60
2022/06/24 13:03:43;;;;;;;10.85;8.43;;;24.20;99.90;;;;;;4960750;28;20481;-59
2022/06/24 13:06:09;;;;;;;12.95;8.40;;;24.50;99.90;;;;;;4993596;28;20138;-59
2022/06/24 13:08:35;;;;;;;9.70;7.70;;;24.40;99.90;;;;;;4989435;28;20054;-59
2022/06/24 13:11:00;;;;;;;8.65;6.47;;;24.70;99.90;;;;;;5005632;28;20061;-59
2022/06/24 13:13:27;;;;;;;12.05;7.28;;;24.80;99.90;;;;;;4990641;28;20046;-60
2022/06/24 13:15:53;;;;;;;11.20;9.45;;;24.90;99.90;;;;;;4992205;28;20120;-59
2022/06/24 13:18:19;;;;;;;11.82;9.48;;;24.80;99.90;;;;;;4986532;28;20133;-59
2022/06/24 13:20:45;;;;;;;11.32;9.45;;;24.50;99.90;;;;;;4991577;28;20046;-59
2022/06/24 13:23:12;;;;;;;16.25;9.55;;;24.80;99.90;;;;;;5004410;28;20507;-60
2022/06/24 13:25:40;;;;;;;13.70;10.13;;;25.00;99.90;;;;;;4973591;28;20197;-59
2022/06/24 13:28:06;;;;;;;12.40;10.45;;;25.20;99.90;;;;;;4970631;28;20070;-60
2022/06/24 13:30:32;;;;;;;11.48;9.45;;;25.30;99.90;;;;;;4989517;28;20080;-59
2022/06/24 13:32:58;;;;;;;14.77;11.15;;;25.20;99.90;;;;;;4988010;28;20050;-59
2022/06/24 13:35:23;;;;;;;11.50;10.02;;;26.80;99.90;;;;;;4992088;28;20380;-60
2022/06/24 13:37:49;;;;;;;10.73;9.02;;;25.10;99.90;;;;;;4992050;28;20575;-60
2022/06/24 13:40:15;;;;;;;14.35;10.68;;;25.30;99.90;;;;;;4972303;28;20054;-59
2022/06/24 13:42:41;;;;;;;14.13;10.90;;;25.40;99.90;;;;;;4985837;28;20054;-59
2022/06/24 13:45:07;;;;;;;11.30;10.10;;;26.80;99.90;;;;;;4976533;28;20493;-61
2022/06/24 13:47:33;;;;;;;15.75;11.52;;;25.60;99.90;;;;;;4985546;28;20046;-72
2022/06/24 13:49:59;;;;;;;8.43;7.53;;;25.70;99.90;;;;;;4978314;28;20053;-68
2022/06/24 13:52:27;;;;;;;9.40;7.75;;;25.80;99.90;;;;;;4992485;28;20402;-69
2022/06/24 13:54:57;;;;;;;10.02;7.53;;;25.70;99.90;;;;;;4990124;28;20054;-72
2022/06/24 13:57:24;;;;;;;8.00;6.40;;;25.40;99.90;;;;;;4986371;28;20514;-71
2022/06/24 13:59:50;;;;;;;8.35;6.13;;;25.20;99.90;;;;;;4975968;28;20136;-71
2022/06/24 14:02:17;;;;;;;8.32;5.70;;;24.70;99.90;;;;;;4976668;28;20085;-71